createdAt,value
2023-03-26T00:01:14.319Z,52.38
2023-03-26T00:06:10.244Z,57.88
2023-03-26T00:08:38.634Z,57.77
2023-03-26T00:11:07.101Z,63.47
2023-03-26T00:13:34.755Z,57.65
2023-03-26T00:16:02.323Z,57.15
2023-03-26T00:18:35.115Z,55.13
2023-03-26T00:21:03.600Z,55.25
2023-03-26T00:23:31.190Z,61.65
2023-03-26T00:26:02.766Z,63.13
2023-03-26T00:28:32.834Z,58.60
2023-03-26T00:31:01.778Z,51.67
2023-03-26T00:33:29.479Z,57.97
2023-03-26T00:35:59.201Z,60.20
2023-03-26T00:38:27.044Z,56.38
2023-03-26T00:40:54.674Z,58.80
2023-03-26T00:43:22.591Z,59.22
2023-03-26T00:45:51.737Z,54.97
2023-03-26T00:48:19.484Z,53.60
2023-03-26T00:50:47.655Z,45.85
2023-03-26T00:53:15.490Z,45.30
2023-03-26T00:55:43.244Z,41.30
2023-03-26T00:58:10.747Z,48.45
2023-03-26T01:00:41.239Z,55.80
2023-03-26T01:03:08.808Z,73.75
2023-03-26T01:05:36.305Z,67.18
2023-03-26T01:08:22.892Z,71.18
2023-03-26T01:10:53.344Z,69.38
2023-03-26T01:13:22.050Z,63.17
2023-03-26T01:15:51.354Z,47.37
2023-03-26T01:18:22.432Z,51.08
2023-03-26T01:20:50.617Z,49.97
2023-03-26T01:23:22.437Z,48.83
2023-03-26T01:25:52.103Z,56.45
2023-03-26T01:28:19.706Z,51.42
2023-03-26T01:30:49.729Z,57.53
2023-03-26T01:33:30.013Z,63.92
2023-03-26T01:36:09.669Z,58.33
2023-03-26T01:38:40.350Z,48.30
2023-03-26T01:41:27.093Z,51.63
2023-03-26T01:43:58.182Z,40.92
2023-03-26T01:46:25.910Z,37.55
2023-03-26T01:48:53.424Z,37.13
2023-03-26T01:51:31.033Z,40.25
2023-03-26T01:53:58.756Z,41.42
2023-03-26T01:56:32.275Z,46.35
2023-03-26T01:59:14.703Z,43.63
2023-03-26T02:01:55.000Z,40.30
2023-03-26T02:04:25.644Z,49.22
2023-03-26T02:07:06.005Z,45.78
2023-03-26T02:09:34.504Z,46.00
2023-03-26T02:12:03.719Z,47.20
2023-03-26T02:14:32.274Z,49.83
2023-03-26T02:17:00.928Z,58.53
2023-03-26T02:19:28.317Z,53.13
2023-03-26T02:21:59.908Z,57.63
2023-03-26T02:24:27.574Z,54.63
2023-03-26T02:26:54.993Z,50.17
2023-03-26T02:29:22.427Z,51.72
2023-03-26T02:31:50.135Z,51.88
2023-03-26T02:34:17.735Z,47.53
2023-03-26T02:36:45.184Z,44.70
2023-03-26T02:39:14.446Z,40.45
2023-03-26T02:41:41.918Z,33.97
2023-03-26T02:44:09.419Z,42.55
2023-03-26T02:46:36.858Z,36.38
2023-03-26T02:49:04.321Z,39.72
2023-03-26T02:51:34.998Z,40.50
2023-03-26T02:54:02.826Z,42.28
2023-03-26T02:56:30.461Z,44.55
2023-03-26T02:58:57.850Z,52.80
2023-03-26T03:01:25.314Z,50.00
2023-03-26T03:03:52.801Z,54.13
2023-03-26T03:06:20.258Z,52.63
2023-03-26T03:08:47.746Z,55.55
2023-03-26T03:11:22.921Z,51.47
2023-03-26T03:13:50.384Z,53.58
2023-03-26T03:16:17.963Z,49.45
2023-03-26T03:18:45.517Z,52.53
2023-03-26T03:21:13.017Z,56.53
2023-03-26T03:23:40.592Z,50.25
2023-03-26T03:26:12.711Z,58.35
2023-03-26T03:28:40.355Z,55.13
2023-03-26T03:31:09.317Z,59.90
2023-03-26T03:33:36.776Z,58.78
2023-03-26T03:36:19.653Z,65.53
2023-03-26T03:38:47.710Z,65.70
2023-03-26T03:41:15.213Z,67.60
2023-03-26T03:43:42.661Z,62.45
2023-03-26T03:46:10.141Z,62.90
2023-03-26T03:48:38.453Z,61.45
2023-03-26T03:51:06.559Z,70.43
2023-03-26T03:53:37.352Z,52.92
2023-03-26T03:56:10.504Z,51.08
2023-03-26T03:58:38.129Z,51.33
2023-03-26T04:01:05.678Z,45.50
2023-03-26T04:03:39.247Z,46.05
2023-03-26T04:06:07.497Z,48.33
2023-03-26T04:08:35.008Z,58.70
2023-03-26T04:11:02.508Z,44.05
2023-03-26T04:13:29.933Z,72.03
2023-03-26T04:15:57.775Z,38.00
2023-03-26T04:18:26.497Z,42.35
2023-03-26T04:20:55.854Z,40.25
2023-03-26T04:23:23.464Z,40.47
2023-03-26T04:25:54.388Z,37.45
2023-03-26T04:28:26.648Z,33.90
2023-03-26T04:30:54.814Z,33.42
2023-03-26T04:33:22.374Z,33.58
2023-03-26T04:35:49.929Z,37.95
2023-03-26T04:38:18.417Z,36.83
2023-03-26T04:40:48.886Z,41.92
2023-03-26T04:43:18.087Z,41.97
2023-03-26T04:45:48.874Z,38.85
2023-03-26T04:48:16.313Z,42.30
2023-03-26T04:50:44.061Z,38.72
2023-03-26T04:53:15.590Z,33.83
2023-03-26T04:55:44.835Z,44.63
2023-03-26T04:58:14.109Z,39.28
2023-03-26T05:00:42.176Z,39.35
2023-03-26T05:03:12.910Z,35.17
2023-03-26T05:05:40.790Z,27.42
2023-03-26T05:08:08.267Z,29.85
2023-03-26T05:10:35.764Z,29.33
2023-03-26T05:13:03.264Z,29.30
2023-03-26T05:15:30.742Z,26.95
2023-03-26T05:17:59.377Z,29.60
2023-03-26T05:20:27.427Z,31.90
2023-03-26T05:22:54.982Z,27.58
2023-03-26T05:25:22.443Z,30.35
2023-03-26T05:27:49.864Z,32.38
2023-03-26T05:30:18.459Z,27.70
2023-03-26T05:32:46.275Z,27.65
2023-03-26T05:35:15.521Z,31.67
2023-03-26T05:37:45.563Z,33.60
2023-03-26T05:40:14.912Z,28.10
2023-03-26T05:42:42.376Z,31.40
2023-03-26T05:45:10.443Z,29.35
2023-03-26T05:47:38.097Z,31.05
2023-03-26T05:50:06.420Z,32.45
2023-03-26T05:52:33.839Z,28.80
2023-03-26T05:55:01.489Z,34.92
2023-03-26T05:57:32.977Z,37.22
2023-03-26T06:00:00.612Z,36.83
2023-03-26T06:02:29.626Z,38.70
2023-03-26T06:07:39.167Z,35.47
2023-03-26T06:10:06.915Z,30.50
2023-03-26T06:12:34.482Z,35.05
2023-03-26T06:15:03.703Z,31.50
2023-03-26T06:17:31.257Z,27.77
2023-03-26T06:19:58.811Z,35.08
2023-03-26T06:22:26.467Z,29.52
2023-03-26T06:25:01.776Z,26.92
2023-03-26T06:27:54.459Z,28.63
2023-03-26T06:30:22.011Z,29.90
2023-03-26T06:32:49.651Z,22.23
2023-03-26T06:35:17.317Z,24.80
2023-03-26T06:37:45.055Z,22.85
2023-03-26T06:40:16.001Z,23.13
2023-03-26T06:43:09.362Z,21.88
2023-03-26T06:45:31.342Z,26.23
2023-03-26T06:47:58.939Z,29.05
2023-03-26T06:50:26.631Z,28.05
2023-03-26T06:52:55.009Z,28.17
2023-03-26T06:55:22.656Z,25.73
2023-03-26T06:57:50.834Z,23.00
2023-03-26T07:00:18.425Z,26.25
2023-03-26T07:02:46.138Z,26.77
2023-03-26T07:05:22.879Z,27.90
2023-03-26T07:07:50.640Z,25.83
2023-03-26T07:10:18.196Z,28.73
2023-03-26T07:12:46.243Z,30.65
2023-03-26T07:15:18.459Z,27.30
2023-03-26T07:17:46.285Z,21.08
2023-03-26T07:20:14.007Z,20.70
2023-03-26T07:22:51.769Z,19.50
2023-03-26T07:25:19.708Z,23.23
2023-03-26T07:27:50.496Z,20.52
2023-03-26T07:30:41.758Z,25.05
2023-03-26T07:33:17.020Z,32.17
2023-03-26T07:35:59.692Z,24.88
2023-03-26T07:38:45.636Z,17.88
2023-03-26T07:41:23.812Z,21.23
2023-03-26T07:44:03.775Z,23.08
2023-03-26T07:46:32.234Z,30.48
2023-03-26T07:49:01.930Z,30.33
2023-03-26T07:51:29.809Z,24.08
2023-03-26T07:54:00.689Z,24.08
2023-03-26T07:56:35.251Z,20.00
2023-03-26T07:59:16.312Z,21.88
2023-03-26T08:01:53.446Z,19.23
2023-03-26T08:04:23.289Z,25.65
2023-03-26T08:06:59.865Z,21.75
2023-03-26T08:09:48.274Z,23.83
2023-03-26T08:12:23.187Z,22.42
2023-03-26T08:14:56.552Z,23.35
2023-03-26T08:17:24.080Z,22.02
2023-03-26T08:19:58.530Z,20.20
2023-03-26T08:22:29.176Z,17.65
2023-03-26T08:25:17.796Z,15.98
2023-03-26T08:27:54.705Z,18.60
2023-03-26T08:30:23.369Z,24.17
2023-03-26T08:32:54.559Z,15.23
2023-03-26T08:35:22.087Z,16.30
2023-03-26T08:37:55.021Z,28.05
2023-03-26T08:40:49.220Z,21.48
2023-03-26T08:43:16.717Z,25.30
2023-03-26T08:46:00.390Z,29.15
2023-03-26T08:48:42.556Z,35.20
2023-03-26T08:51:19.347Z,40.15
2023-03-26T08:53:51.291Z,39.08
2023-03-26T08:56:27.738Z,27.73
2023-03-26T08:59:11.921Z,15.82
2023-03-26T09:01:58.252Z,15.27
2023-03-26T09:04:37.071Z,13.00
2023-03-26T09:07:10.438Z,16.00
2023-03-26T09:09:44.145Z,13.25
2023-03-26T09:12:30.567Z,10.88
2023-03-26T09:15:10.458Z,12.60
2023-03-26T09:17:40.857Z,9.13
2023-03-26T09:20:21.018Z,11.30
2023-03-26T09:22:48.736Z,9.93
2023-03-26T09:25:42.022Z,9.30
2023-03-26T09:28:32.816Z,12.38
2023-03-26T09:31:01.401Z,9.93
2023-03-26T09:33:52.409Z,8.13
2023-03-26T10:13:28.584Z,7.38
2023-03-26T10:16:10.640Z,3.92
2023-03-26T10:18:38.161Z,2.35
2023-03-26T10:21:12.686Z,2.85
2023-03-26T10:23:53.220Z,2.58
2023-03-26T10:26:38.808Z,3.65
2023-03-26T10:29:06.360Z,4.63
2023-03-26T10:31:36.757Z,3.53
2023-03-26T10:34:28.998Z,2.58
2023-03-26T10:37:17.160Z,3.00
2023-03-26T10:42:27.355Z,3.72
2023-03-26T10:45:00.638Z,4.47
2023-03-26T10:47:45.999Z,4.50
2023-03-26T10:50:22.830Z,2.03
2023-03-26T10:53:06.035Z,2.17
2023-03-26T10:55:40.860Z,2.90
2023-03-26T10:58:49.066Z,4.00
2023-03-26T11:01:29.463Z,3.00
2023-03-26T11:03:59.614Z,3.63
2023-03-26T11:06:43.649Z,2.97
2023-03-26T11:09:33.274Z,3.63
2023-03-26T11:12:27.194Z,3.60
2023-03-26T11:14:58.489Z,3.47
2023-03-26T11:17:40.595Z,4.07
2023-03-26T11:20:09.288Z,3.15
2023-03-26T11:22:40.303Z,3.28
2023-03-26T11:25:24.984Z,4.68
2023-03-26T11:28:04.795Z,3.13
2023-03-26T11:30:35.395Z,3.78
2023-03-26T11:33:03.619Z,3.20
2023-03-26T11:38:13.975Z,3.80
2023-03-26T11:40:42.721Z,1.88
2023-03-26T11:43:13.638Z,3.20
2023-03-26T11:45:42.539Z,2.67
2023-03-26T11:48:21.849Z,3.95
2023-03-26T11:50:51.554Z,2.35
2023-03-26T11:53:30.005Z,3.17
2023-03-26T11:56:08.632Z,4.03
2023-03-26T11:58:41.190Z,5.00
2023-03-26T12:01:18.085Z,3.33
2023-03-26T12:03:59.198Z,3.15
2023-03-26T12:06:31.838Z,3.45
2023-03-26T12:08:59.423Z,4.72
2023-03-26T12:14:03.216Z,4.15
2023-03-26T12:16:33.799Z,5.38
2023-03-26T12:19:01.334Z,2.63
2023-03-26T12:24:15.232Z,3.03
2023-03-26T12:26:48.811Z,3.80
2023-03-26T12:29:17.549Z,5.07
2023-03-26T12:32:03.946Z,4.13
2023-03-26T12:34:36.893Z,3.33
2023-03-26T12:37:05.320Z,3.50
2023-03-26T12:40:10.275Z,4.50
2023-03-26T12:44:46.607Z,7.18
2023-03-26T12:48:57.593Z,4.00
2023-03-26T12:51:38.502Z,3.38
2023-03-26T12:54:13.531Z,2.75
2023-03-26T12:57:11.948Z,4.15
2023-03-26T12:59:47.155Z,4.57
2023-03-26T13:02:33.009Z,4.60
2023-03-26T13:05:06.762Z,5.40
2023-03-26T13:07:36.440Z,2.70
2023-03-26T13:10:25.416Z,3.85
2023-03-26T13:13:05.838Z,4.45
2023-03-26T13:15:45.988Z,4.07
2023-03-26T13:18:39.848Z,3.60
2023-03-26T13:21:19.086Z,6.20
2023-03-26T13:24:05.103Z,4.10
2023-03-26T13:26:51.033Z,3.92
2023-03-26T13:30:06.344Z,5.55
2023-03-26T13:32:38.116Z,4.80
2023-03-26T13:35:27.744Z,5.72
2023-03-26T13:38:01.860Z,5.38
2023-03-26T13:40:51.194Z,5.07
2023-03-26T13:43:39.309Z,4.65
2023-03-26T13:47:03.795Z,4.35
2023-03-26T13:49:50.688Z,4.68
2023-03-26T13:52:27.673Z,4.83
2023-03-26T13:54:59.317Z,7.30
2023-03-26T14:26:50.757Z,4.47
2023-03-26T14:30:01.305Z,8.20
2023-03-26T14:32:54.651Z,6.68
2023-03-26T14:35:48.539Z,6.47
2023-03-26T14:38:40.460Z,5.90
2023-03-26T14:41:27.000Z,5.50
2023-03-26T14:44:13.417Z,6.93
2023-03-26T14:47:02.058Z,5.47
2023-03-26T14:49:52.048Z,6.45
2023-03-26T14:52:27.462Z,7.50
2023-03-26T14:55:04.919Z,6.78
2023-03-26T14:57:49.582Z,8.07
2023-03-26T15:00:32.333Z,5.57
2023-03-26T15:03:15.209Z,6.15
2023-03-26T15:05:49.757Z,8.13
2023-03-26T15:08:34.085Z,7.78
2023-03-26T15:11:13.699Z,6.70
2023-03-26T15:14:02.781Z,5.93
2023-03-26T15:16:39.828Z,5.68
2023-03-26T15:19:26.102Z,5.90
2023-03-26T15:21:59.135Z,6.80
2023-03-26T15:24:47.614Z,5.63
2023-03-26T15:27:22.046Z,6.90
2023-03-26T15:34:04.741Z,11.77
2023-03-26T15:37:07.474Z,8.25
2023-03-26T15:40:01.047Z,7.05
2023-03-26T15:43:01.169Z,8.55
2023-03-26T15:45:55.550Z,11.35
2023-03-26T15:48:49.876Z,10.95
2023-03-26T15:51:17.329Z,10.15
2023-03-26T15:53:56.012Z,9.43
2023-03-26T15:56:26.152Z,12.07
2023-03-26T15:58:59.755Z,11.60
2023-03-26T16:01:51.227Z,11.48
2023-03-26T16:04:26.761Z,11.05
2023-03-26T16:07:16.144Z,13.32
2023-03-26T16:10:04.663Z,14.38
2023-03-26T16:12:38.818Z,13.98
2023-03-26T16:15:22.451Z,13.15
2023-03-26T16:18:09.553Z,12.55
2023-03-26T16:26:21.401Z,23.52
2023-03-26T16:28:49.266Z,18.38
2023-03-26T16:31:37.320Z,20.98
2023-03-26T16:34:13.531Z,16.77
2023-03-26T16:36:44.185Z,18.75
2023-03-26T16:39:22.081Z,20.20
2023-03-26T16:41:52.393Z,14.18
2023-03-26T16:44:26.101Z,13.95
2023-03-26T16:47:12.188Z,14.55
2023-03-26T16:50:08.418Z,13.80
2023-03-26T16:56:10.843Z,16.85
2023-03-26T17:02:26.664Z,18.95
2023-03-26T17:04:56.231Z,25.25
2023-03-26T17:07:42.527Z,19.38
2023-03-26T17:10:44.541Z,15.88
2023-03-26T17:13:25.181Z,13.20
2023-03-26T17:16:03.050Z,16.05
2023-03-26T17:18:49.408Z,20.10
2023-03-26T17:21:18.073Z,28.98
2023-03-26T17:23:55.482Z,23.35
2023-03-26T17:26:35.372Z,21.52
2023-03-26T17:29:16.973Z,19.88
2023-03-26T17:34:53.386Z,20.50
2023-03-26T17:37:21.121Z,21.52
2023-03-26T17:40:12.733Z,20.15
2023-03-26T17:42:40.545Z,25.10
2023-03-26T17:45:08.290Z,22.35
2023-03-26T17:47:45.450Z,25.35
2023-03-26T17:50:22.982Z,34.72
2023-03-26T17:52:52.957Z,27.85
2023-03-26T17:55:52.706Z,32.40
2023-03-26T17:58:23.024Z,30.70
2023-03-26T18:00:51.511Z,26.88
2023-03-26T18:03:19.301Z,25.58
2023-03-26T18:05:47.154Z,23.77
2023-03-26T18:08:37.760Z,26.58
2023-03-26T18:11:27.076Z,30.85
2023-03-26T18:13:57.926Z,30.45
2023-03-26T18:16:37.586Z,28.50
2023-03-26T18:19:22.704Z,21.85
2023-03-26T18:22:02.774Z,20.92
2023-03-26T18:24:42.786Z,22.20
2023-03-26T18:27:16.917Z,22.17
2023-03-26T18:29:45.038Z,26.30
2023-03-26T18:32:17.006Z,32.15
2023-03-26T18:34:50.183Z,39.92
2023-03-26T18:37:19.684Z,32.38
2023-03-26T18:39:59.018Z,32.10
2023-03-26T18:42:27.264Z,32.10
2023-03-26T18:45:00.286Z,32.37
2023-03-26T18:47:37.343Z,30.25
2023-03-26T18:50:05.420Z,29.65
2023-03-26T18:52:40.591Z,32.50
2023-03-26T18:55:08.374Z,24.52
2023-03-26T18:57:36.982Z,18.60
2023-03-26T19:00:17.277Z,19.55
2023-03-26T19:02:48.025Z,17.77
2023-03-26T19:05:19.078Z,20.80
2023-03-26T19:07:50.308Z,23.83
2023-03-26T19:10:36.638Z,25.70
2023-03-26T19:13:13.126Z,33.78
2023-03-26T19:15:40.968Z,34.20
2023-03-26T19:18:16.993Z,30.23
2023-03-26T19:20:55.029Z,32.38
2023-03-26T19:23:35.713Z,48.55
2023-03-26T19:26:04.386Z,49.58
2023-03-26T19:28:32.997Z,55.63
2023-03-26T19:31:25.371Z,60.17
2023-03-26T19:34:29.744Z,67.78
2023-03-26T19:37:03.691Z,67.40
2023-03-26T19:40:09.280Z,65.65
2023-03-26T19:42:43.652Z,65.05
2023-03-26T19:45:16.805Z,58.90
2023-03-26T19:47:48.431Z,49.45
2023-03-26T19:50:19.805Z,55.92
2023-03-26T19:52:47.269Z,51.30
2023-03-26T19:55:24.217Z,68.45
2023-03-26T19:57:54.897Z,63.00
2023-03-26T20:00:23.254Z,70.70
2023-03-26T20:02:50.823Z,74.73
2023-03-26T20:05:36.744Z,91.95
2023-03-26T20:08:11.102Z,88.90
2023-03-26T20:10:44.584Z,96.38
2023-03-26T20:13:16.173Z,90.07
2023-03-26T20:15:47.047Z,102.60
2023-03-26T20:18:28.751Z,124.45
2023-03-26T20:20:56.603Z,95.35
2023-03-26T20:23:25.685Z,116.85
2023-03-26T20:25:55.066Z,114.15
2023-03-26T20:28:25.601Z,124.40
2023-03-26T20:30:54.785Z,119.53
2023-03-26T20:33:29.242Z,133.50
2023-03-26T20:35:57.436Z,130.82
2023-03-26T20:38:39.152Z,132.67
2023-03-26T20:41:08.186Z,146.02
2023-03-26T20:43:36.016Z,140.45
2023-03-26T20:46:12.299Z,150.18
2023-03-26T20:48:42.099Z,155.48
2023-03-26T20:51:28.699Z,151.02
2023-03-26T20:53:57.084Z,137.45
2023-03-26T20:56:24.732Z,151.85
2023-03-26T20:59:10.451Z,146.13
2023-03-26T21:01:39.458Z,155.00
2023-03-26T21:04:07.797Z,143.70
2023-03-26T21:06:36.520Z,127.18
2023-03-26T21:09:04.218Z,139.80
2023-03-26T21:11:48.393Z,105.18
2023-03-26T21:14:24.061Z,123.88
2023-03-26T21:16:52.725Z,132.95
2023-03-26T21:19:20.834Z,147.88
2023-03-26T21:21:51.050Z,119.30
2023-03-26T21:24:18.732Z,99.25
2023-03-26T21:27:06.787Z,105.43
2023-03-26T21:29:34.587Z,120.57
2023-03-26T21:32:02.101Z,111.47
2023-03-26T21:34:33.529Z,110.90
2023-03-26T21:37:03.008Z,106.07
2023-03-26T21:39:30.794Z,103.35
2023-03-26T21:42:05.205Z,100.53
2023-03-26T21:44:34.000Z,88.75
2023-03-26T21:47:01.695Z,92.00
2023-03-26T21:49:29.810Z,81.93
2023-03-26T21:51:57.424Z,79.32
2023-03-26T21:54:28.971Z,85.35
2023-03-26T21:57:18.803Z,82.50
2023-03-26T21:59:56.488Z,99.80
2023-03-26T22:02:33.351Z,84.68
2023-03-26T22:05:03.953Z,93.38
2023-03-26T22:07:32.045Z,83.10
2023-03-26T22:09:59.842Z,81.32
2023-03-26T22:12:30.411Z,77.63
2023-03-26T22:14:58.546Z,83.05
2023-03-26T22:17:26.257Z,81.50
2023-03-26T22:19:53.764Z,80.05
2023-03-26T22:22:22.338Z,73.25
2023-03-26T22:24:49.806Z,70.78
2023-03-26T22:27:18.165Z,74.97
2023-03-26T22:29:46.686Z,76.17
2023-03-26T22:32:14.211Z,72.53
2023-03-26T22:34:45.335Z,79.43
2023-03-26T23:29:33.750Z,70.95
2023-03-26T23:32:01.488Z,57.65
2023-03-26T23:34:29.117Z,61.35
2023-03-26T23:36:58.234Z,56.45
2023-03-26T23:39:26.854Z,53.20
2023-03-26T23:41:54.407Z,48.67
2023-03-26T23:44:21.866Z,45.42
2023-03-26T23:47:14.653Z,51.13
2023-03-26T23:49:51.450Z,49.38
2023-03-26T23:52:30.761Z,46.42
2023-03-26T23:55:11.301Z,52.42
2023-03-26T23:57:39.131Z,48.97
